Latest Weather Observations for Kanagulk

IDV60801

Issued at 8:05 pm EST Thursday 2 October 2014 (issued every 30 minutes, with the page automatically refreshed every 10 minutes)

About weather observations | Map of weather stations | Latest weather observations for VIC | Other Formats
Station Details ID: 079097 Name: KANAGULK Lat: -37.12 Lon: 141.80 Height: 188.8 m
Data from the previous 72 hours. | See also: Recent months at Kanagulk
Date/Time
EST
Temp
°C
App
Temp
°C
Dew
Point
Rel
Hum
%
Delta-T
°C
Wind Press
QNH
hPa
Press
MSL
hPa
Rain
since 9 am
mm
Dir
 
Spd
km/h
Gust
km/h
Spd
kts
Gust
kts
02/08:00pm 11.6 9.2 7.1 74 2.2 SSW 9 11 5 6 1025.0 1024.9 0.0
02/07:30pm 12.5 10.2 7.4 71 2.5 SSW 9 13 5 7 1024.8 1024.7 0.0
02/07:00pm 13.2 10.9 7.4 68 2.8 SSW 9 15 5 8 1024.7 1024.6 0.0
02/06:30pm 13.9 10.4 7.4 65 3.2 SSW 15 20 8 11 1024.7 1024.6 0.0
02/06:00pm 14.4 11.4 7.5 63 3.4 SSW 13 20 7 11 1024.6 1024.5 0.0
02/05:30pm 14.0 11.0 7.5 65 3.2 S 13 20 7 11 1024.3 1024.2 0.0
02/05:00pm 14.6 11.3 7.9 64 3.4 S 15 20 8 11 1024.1 1024.1 0.0
02/04:30pm 14.9 11.5 7.5 61 3.7 S 15 22 8 12 1024.0 1024.0 0.0
02/04:00pm 16.0 12.4 8.2 60 4.0 S 17 26 9 14 1024.3 1024.2 0.0
02/03:30pm 15.0 10.6 7.3 60 3.8 SSW 20 32 11 17 1024.4 1024.3 0.0
02/03:00pm 15.6 11.6 8.1 61 3.8 SW 19 30 10 16 1024.6 1024.5 0.0
02/02:30pm 15.7 11.5 7.5 58 4.1 SSW 19 28 10 15 1024.9 1024.8 0.0
02/02:00pm 15.6 12.4 8.4 62 3.7 SSW 15 28 8 15 1025.0 1024.9 0.0
02/01:30pm 15.8 12.2 8.5 62 3.7 SSW 17 28 9 15 1025.3 1025.2 0.0
02/01:00pm 14.8 10.6 8.3 65 3.3 SW 20 28 11 15 1025.6 1025.6 0.0
02/12:30pm 14.6 11.0 8.5 67 3.1 SW 17 28 9 15 1025.8 1025.8 0.0
02/12:00pm 14.6 10.9 8.1 65 3.3 SSW 17 28 9 15 1026.1 1026.1 0.0
02/11:30am 14.1 10.4 7.9 66 3.1 SW 17 26 9 14 1026.3 1026.3 0.0
02/11:00am 13.9 10.1 7.7 66 3.1 SW 17 24 9 13 1026.5 1026.5 0.0
02/10:30am 13.3 9.7 8.2 71 2.6 SW 17 26 9 14 1026.6 1026.6 0.0
02/10:00am 12.8 9.4 7.7 71 2.5 SW 15 24 8 13 1026.7 1026.7 0.0
02/09:30am 12.6 9.6 7.9 73 2.3 WSW 13 22 7 12 1026.7 1026.7 0.0
02/09:00am 12.4 9.5 8.1 75 2.1 SW 13 20 7 11 1026.6 1026.6 0.0
02/08:30am 11.4 8.4 7.7 78 1.8 WSW 13 20 7 11 1026.5 1026.5 0.0
02/08:00am 11.0 8.0 7.7 80 1.6 WSW 13 22 7 12 1026.3 1026.3 0.0
02/07:30am 10.4 8.5 7.6 83 1.4 WSW 7 11 4 6 1026.1 1026.1 0.0
02/07:00am 9.8 8.1 7.4 85 1.1 W 6 11 3 6 1025.9 1025.9 0.0
02/06:30am 9.5 7.4 6.8 83 1.3 W 7 11 4 6 1025.6 1025.6 0.0
02/06:00am 9.2 7.7 6.8 85 1.1 W 4 9 2 5 1025.5 1025.5 0.0
02/05:30am 9.1 7.2 6.5 84 1.2 W 6 11 3 6 1025.5 1025.5 0.0
02/05:00am 8.8 7.3 6.6 86 1.0 W 4 9 2 5 1025.3 1025.2 0.0
02/04:30am 8.6 6.7 6.6 87 0.9 W 6 9 3 5 1025.4 1025.3 0.0
02/04:00am 8.5 7.7 6.6 88 0.9 CALM 0 7 0 4 1025.5 1025.5 0.0
02/03:30am 8.4 6.8 6.5 88 0.9 W 4 7 2 4 1025.5 1025.5 0.0
02/03:00am 8.0 7.2 6.3 89 0.8 CALM 0 0 0 0 1025.6 1025.6 0.0
02/02:30am 8.0 6.8 6.3 89 0.8 W 2 6 1 3 1025.9 1025.9 0.0
02/02:00am 7.9 7.0 6.2 89 0.8 CALM 0 0 0 0 1026.2 1026.2 0.0
02/01:30am 7.9 7.1 6.4 90 0.7 CALM 0 0 0 0 1026.3 1026.3 0.0
02/01:00am 7.4 6.1 6.2 92 0.5 WSW 2 7 1 4 1026.5 1026.5 0.0
02/12:30am 6.7 5.3 5.7 93 0.5 W 2 6 1 3 1026.6 1026.6 0.0
02/12:00am 5.7 4.5 4.7 93 0.4 SW 0 0 0 0 1026.7 1026.7 0.0
 
Date/Time
EST
Temp
°C
App
Temp
°C
Dew
Point
Rel
Hum
%
Delta-T
°C
Wind Press
QNH
hPa
Press
MSL
hPa
Rain
since 9 am
mm
Dir
 
Spd
km/h
Gust
km/h
Spd
kts
Gust
kts
01/11:30pm 5.5 4.1 3.8 89 0.7 CALM 0 0 0 0 1026.9 1026.9 0.0
01/11:00pm 6.7 4.2 4.7 87 0.9 SW 7 9 4 5 1026.9 1026.9 0.0
01/10:30pm 6.8 3.9 4.8 87 0.9 SSW 9 11 5 6 1027.0 1027.0 0.0
01/10:00pm 7.2 4.7 4.5 83 1.2 SW 7 9 4 5 1027.1 1027.1 0.0
01/09:30pm 8.1 4.5 5.2 82 1.3 SW 13 17 7 9 1026.9 1026.9 0.0
01/09:00pm 8.3 5.2 5.4 82 1.3 SW 11 15 6 8 1026.9 1026.9 0.0
01/08:30pm 8.4 6.0 5.3 81 1.4 WSW 7 11 4 6 1026.7 1026.7 0.0
01/08:00pm 9.3 6.2 5.7 78 1.6 SW 11 13 6 7 1026.7 1026.7 0.0
01/07:30pm 9.9 6.9 6.1 77 1.8 SW 11 15 6 8 1026.5 1026.5 0.0
01/07:00pm 10.6 7.5 5.6 71 2.3 SSW 11 15 6 8 1026.2 1026.2 0.0
01/06:30pm 11.3 8.1 5.0 65 2.9 SSW 11 15 6 8 1025.9 1025.9 0.0
01/06:00pm 12.2 8.2 4.7 60 3.4 SSW 15 20 8 11 1025.9 1025.9 0.0
01/05:30pm 13.6 9.9 4.7 55 4.2 SW 13 20 7 11 1025.6 1025.6 0.0
01/05:00pm 13.0 9.3 4.7 57 3.8 SSW 13 20 7 11 1025.4 1025.3 0.0
01/04:30pm 13.5 9.4 4.4 54 4.2 SW 15 22 8 12 1025.5 1025.5 0.0
01/04:00pm 14.5 10.1 4.5 51 4.7 WSW 17 28 9 15 1025.4 1025.3 0.0
01/03:30pm 13.5 9.4 4.4 54 4.2 SW 15 24 8 13 1025.4 1025.3 0.0
01/03:00pm 14.0 9.5 4.0 51 4.6 SW 17 28 9 15 1025.6 1025.6 0.0
01/02:30pm 13.6 8.6 3.7 51 4.5 SSW 19 28 10 15 1025.8 1025.8 0.0
01/02:00pm 15.1 10.9 5.6 53 4.5 SW 17 28 9 15 1025.8 1025.8 0.0
01/01:30pm 14.0 10.2 3.8 50 4.7 SW 13 26 7 14 1025.8 1025.8 0.0
01/01:00pm 12.7 8.3 4.7 58 3.7 SW 17 28 9 15 1026.1 1026.1 0.0
01/12:30pm 13.0 8.0 4.4 56 4.0 SW 20 28 11 15 1026.0 1026.0 0.0
01/12:00pm 13.1 9.5 4.8 57 3.8 SW 13 17 7 9 1026.1 1026.1 0.0
01/11:30am 11.9 7.4 4.2 59 3.5 SW 17 26 9 14 1026.3 1026.3 0.0
01/11:00am 12.1 7.0 4.3 59 3.5 SW 20 28 11 15 1026.4 1026.4 0.0
01/10:30am 11.6 6.8 4.6 62 3.2 SW 19 28 10 15 1026.5 1026.5 0.0
01/10:00am 10.6 6.5 4.3 65 2.8 SW 15 26 8 14 1026.3 1026.3 0.0
01/09:30am 10.7 5.8 5.0 68 2.6 SW 20 30 11 16 1026.0 1026.1 0.0
01/09:00am 9.7 5.9 5.9 77 1.8 SW 15 20 8 11 1025.6 1025.7 2.0
01/08:30am 8.4 5.4 5.9 84 1.1 WSW 11 17 6 9 1025.2 1025.3 2.0
01/08:00am 6.2 3.3 4.5 89 0.7 W 9 13 5 7 1024.9 1025.0 2.0
01/07:30am 5.7 2.8 4.7 93 0.4 W 9 13 5 7 1024.3 1024.4 2.0
01/07:00am 3.8 1.2 3.2 96 0.2 W 6 7 3 4 1023.8 1024.0 2.0
01/06:30am 2.7 -0.1 2.1 96 0.2 W 6 9 3 5 1023.3 1023.5 2.0
01/06:00am 2.3 -0.6 1.4 94 0.3 WSW 6 9 3 5 1022.7 1022.9 2.0
01/05:30am 2.5 -0.4 1.2 91 0.5 W 6 9 3 5 1022.1 1022.2 2.0
01/05:00am 3.6 0.8 1.8 88 0.7 W 6 9 3 5 1021.7 1021.8 2.0
01/04:30am 4.5 0.5 2.7 88 0.7 SW 13 17 7 9 1021.3 1021.4 2.0
01/04:00am 4.9 0.6 3.4 90 0.6 SW 15 20 8 11 1021.0 1021.1 2.0
01/03:30am 3.8 -0.2 2.9 94 0.4 SW 13 19 7 10 1020.7 1020.8 2.0
01/03:00am 2.8 -0.2 1.9 94 0.4 WSW 7 11 4 6 1020.4 1020.5 2.0
01/02:30am 3.3 0.4 2.4 94 0.4 WSW 7 9 4 5 1020.2 1020.3 1.8
01/02:00am 3.7 0.8 2.8 94 0.4 W 7 11 4 6 1020.1 1020.2 1.8
01/01:30am 3.8 0.9 2.6 92 0.5 WSW 7 9 4 5 1020.0 1020.1 1.8
01/01:00am 3.9 1.0 2.4 90 0.6 WSW 7 11 4 6 1019.9 1020.0 1.8
01/12:30am 5.1 2.3 3.0 86 0.9 W 7 11 4 6 1019.5 1019.6 1.8
01/12:00am 5.5 1.9 2.8 83 1.1 WSW 11 19 6 10 1019.2 1019.3 1.8
 
Date/Time
EST
Temp
°C
App
Temp
°C
Dew
Point
Rel
Hum
%
Delta-T
°C
Wind Press
QNH
hPa
Press
MSL
hPa
Rain
since 9 am
mm
Dir
 
Spd
km/h
Gust
km/h
Spd
kts
Gust
kts
30/11:30pm 6.0 2.2 3.8 86 0.9 WSW 13 20 7 11 1018.8 1018.9 1.8
30/11:00pm 6.1 2.8 4.7 91 0.6 W 11 22 6 12 1018.5 1018.7 1.8
30/10:30pm 5.1 2.1 4.2 94 0.4 W 9 15 5 8 1018.1 1018.3 1.8
30/10:00pm 5.4 2.5 4.4 93 0.4 W 9 15 5 8 1017.8 1017.9 1.8
30/09:30pm 5.3 2.7 4.0 91 0.6 W 7 11 4 6 1017.3 1017.4 1.8
30/09:00pm 5.5 2.8 3.8 89 0.7 W 7 11 4 6 1017.1 1017.2 1.8
30/08:30pm 5.9 2.5 3.9 87 0.9 WSW 11 15 6 8 1016.6 1016.7 1.8
30/08:00pm 6.4 2.3 4.2 86 1.0 SW 15 22 8 12 1016.5 1016.6 1.8
30/07:30pm 6.9 -0.9 2.6 74 1.8 SSW 33 57 18 31 1016.0 1016.1 1.8
30/07:22pm 8.1 -0.1 2.8 69 2.3 SW 35 57 19 31 1015.9 1016.0 1.8
30/07:00pm 9.2 4.2 3.6 68 2.5 WSW 19 37 10 20 1014.6 1014.7 1.8
30/06:30pm 9.7 4.8 4.1 68 2.5 WSW 19 32 10 17 1014.2 1014.3 1.8
30/06:00pm 9.0 6.4 4.4 73 2.1 W 7 13 4 7 1013.7 1013.8 1.8
30/05:30pm 9.8 4.3 4.2 68 2.5 W 22 39 12 21 1013.0 1013.1 1.8
30/05:00pm 12.7 5.8 2.6 50 4.5 WSW 28 46 15 25 1012.3 1012.4 1.4
30/04:54pm 13.4 6.5 2.3 47 4.9 WSW 28 46 15 25 1012.0 1012.1 1.4
30/04:30pm 13.3 7.0 3.9 53 4.3 WSW 26 41 14 22 1011.6 1011.7 1.4
30/04:00pm 14.0 7.0 4.0 51 4.6 WSW 30 44 16 24 1010.9 1011.0 1.4
30/03:30pm 13.2 8.6 6.3 63 3.3 W 20 39 11 21 1010.4 1010.5 1.4
30/03:00pm 13.5 8.8 6.1 61 3.6 W 20 41 11 22 1009.9 1010.0 1.4
30/02:30pm 11.8 7.7 8.8 82 1.5 W 20 39 11 21 1010.0 1010.1 1.4
30/02:00pm 11.3 7.6 10.2 93 0.6 W 20 39 11 21 1009.7 1009.8 1.4
30/01:32pm 10.8 5.4 9.4 91 0.7 W 28 59 15 32 1009.3 1009.4 0.8
30/01:30pm 11.6 6.8 10.3 92 0.7 W 26 48 14 26 1009.2 1009.3 0.8
30/01:02pm 12.7 7.5 10.4 86 1.2 W 28 52 15 28 1008.4 1008.4 0.6
30/01:00pm 13.0 7.8 10.2 83 1.5 W 28 44 15 24 1008.4 1008.4 0.6
30/12:30pm 17.9 11.6 7.6 51 5.3 NW 30 52 16 28 1006.6 1006.7 0.0
30/12:00pm 17.6 12.0 8.7 56 4.6 WNW 28 48 15 26 1006.8 1006.9 0.0
30/11:40am 17.7 12.1 8.6 55 4.7 WNW 28 46 15 25 1007.3 1007.4 0.0
30/11:30am 17.9 13.1 9.0 56 4.7 WNW 24 48 13 26 1007.5 1007.6 0.0
30/11:00am 17.9 12.1 7.9 52 5.2 WNW 28 52 15 28 1007.9 1007.9 0.0
30/10:30am 18.3 12.1 7.7 50 5.4 NW 30 54 16 29 1008.2 1008.2 0.0
30/10:05am 16.6 10.7 7.5 55 4.6 NW 28 46 15 25 1008.7 1008.7 0.0
30/10:00am 17.1 11.4 8.3 56 4.5 NW 28 44 15 24 1008.6 1008.6 0.0
30/09:30am 16.5 12.9 9.7 64 3.6 NW 19 32 10 17 1008.8 1008.8 0.0
30/09:00am 15.5 11.3 9.8 69 3.0 NW 22 35 12 19 1009.2 1009.3 0.0
30/08:30am 14.1 11.1 10.7 80 1.8 NNW 17 28 9 15 1009.4 1009.5 0.0
30/08:00am 13.0 11.2 12.1 94 0.5 NNW 13 26 7 14 1009.3 1009.4 0.0
30/07:30am 11.4 9.3 11.2 99 0.1 NNW 13 22 7 12 1009.3 1009.4 0.0
30/07:00am 10.1 8.0 9.9 99 0.1 N 11 15 6 8 1009.6 1009.7 0.0
30/06:30am 9.6 7.4 9.5 99 0.1 N 11 17 6 9 1009.6 1009.7 0.0
30/06:00am 10.0 7.9 9.9 99 0.1 N 11 17 6 9 1009.5 1009.6 0.0
30/05:30am 10.0 8.3 9.9 99 0.1 N 9 17 5 9 1009.9 1010.0 0.0
30/05:00am 10.0 7.9 9.9 99 0.1 NNW 11 17 6 9 1010.1 1010.2 0.0
30/04:30am 9.8 7.3 9.7 99 0.1 NNW 13 20 7 11 1010.3 1010.4 0.0
30/04:00am 9.6 7.4 9.5 99 0.1 NNW 11 17 6 9 1010.3 1010.4 0.0
30/03:30am 8.8 7.1 8.4 97 0.2 NNW 7 11 4 6 1010.2 1010.3 0.0
30/03:00am 9.0 6.9 8.4 96 0.3 NNW 9 13 5 7 1010.4 1010.5 0.0
30/02:30am 9.3 7.2 8.4 94 0.4 NW 9 13 5 7 1011.0 1011.1 0.0
30/02:00am 9.8 7.8 8.6 92 0.6 NNW 9 11 5 6 1011.2 1011.3 0.0
30/01:30am 10.3 7.9 8.7 90 0.8 NW 11 17 6 9 1011.4 1011.5 0.0
30/01:00am 10.7 8.7 8.8 88 0.9 NW 9 13 5 7 1011.9 1012.0 0.0
30/12:30am 10.8 8.0 8.6 86 1.1 NW 13 19 7 10 1012.1 1012.2 0.0
30/12:00am 10.8 8.4 8.7 87 1.0 NW 11 17 6 9 1012.3 1012.4 0.0
 
Date/Time
EST
Temp
°C
App
Temp
°C
Dew
Point
Rel
Hum
%
Delta-T
°C
Wind Press
QNH
hPa
Press
MSL
hPa
Rain
since 9 am
mm
Dir
 
Spd
km/h
Gust
km/h
Spd
kts
Gust
kts
29/11:30pm 9.1 6.9 7.7 91 0.7 NW 9 13 5 7 1012.5 1012.6 0.0
29/11:00pm 8.4 6.3 6.5 88 0.9 NNW 7 9 4 5 1012.4 1012.5 0.0
29/10:30pm 9.8 7.7 6.7 81 1.5 NW 7 9 4 5 1012.6 1012.7 0.0
29/10:00pm 11.7 9.9 8.0 78 1.8 WNW 7 11 4 6 1012.7 1012.8 0.0
29/09:30pm 12.2 10.1 8.3 77 1.9 W 9 13 5 7 1012.8 1012.9 0.0
29/09:00pm 12.3 10.6 8.4 77 2.0 W 7 13 4 7 1012.9 1013.0 0.0
29/08:30pm 12.7 11.1 8.0 73 2.3 W 6 9 3 5 1012.8 1012.9 0.0

Other Formats:

Comma delimited format used in spreadsheet applications
http://www.bom.gov.au/fwo/IDV60801/IDV60801.95827.axf

JavaScript Object Notation format (JSON) in row-major order
http://www.bom.gov.au/fwo/IDV60801/IDV60801.95827.json